sensor_id;sensor_type;location;lat;lon;timestamp;P1;durP1;ratioP1;P2;durP2;ratioP2
4432;SDS011;2229;48.708;9.706;2023-01-01T00:01:21;54.83;;;24.70;;
4432;SDS011;2229;48.708;9.706;2023-01-01T00:03:48;47.17;;;20.77;;
4432;SDS011;2229;48.708;9.706;2023-01-01T00:06:16;46.80;;;24.00;;
4432;SDS011;2229;48.708;9.706;2023-01-01T00:08:44;60.53;;;25.77;;
4432;SDS011;2229;48.708;9.706;2023-01-01T00:11:11;55.37;;;23.37;;
4432;SDS011;2229;48.708;9.706;2023-01-01T00:13:40;49.70;;;24.60;;
4432;SDS011;2229;48.708;9.706;2023-01-01T00:16:11;60.57;;;25.97;;
4432;SDS011;2229;48.708;9.706;2023-01-01T00:18:39;50.93;;;24.37;;
4432;SDS011;2229;48.708;9.706;2023-01-01T00:21:08;43.57;;;22.27;;
4432;SDS011;2229;48.708;9.706;2023-01-01T00:23:38;48.10;;;20.80;;
4432;SDS011;2229;48.708;9.706;2023-01-01T00:26:08;45.07;;;20.37;;
4432;SDS011;2229;48.708;9.706;2023-01-01T00:28:35;66.80;;;27.47;;
4432;SDS011;2229;48.708;9.706;2023-01-01T00:31:04;47.63;;;26.00;;
4432;SDS011;2229;48.708;9.706;2023-01-01T00:33:35;58.80;;;26.60;;
4432;SDS011;2229;48.708;9.706;2023-01-01T00:36:06;34.83;;;18.80;;
4432;SDS011;2229;48.708;9.706;2023-01-01T00:38:34;47.30;;;22.17;;
4432;SDS011;2229;48.708;9.706;2023-01-01T00:41:02;43.33;;;18.37;;
4432;SDS011;2229;48.708;9.706;2023-01-01T00:43:30;28.60;;;15.50;;
4432;SDS011;2229;48.708;9.706;2023-01-01T00:46:00;34.20;;;18.60;;
4432;SDS011;2229;48.708;9.706;2023-01-01T00:48:30;44.30;;;20.17;;
4432;SDS011;2229;48.708;9.706;2023-01-01T00:50:59;38.03;;;18.67;;
4432;SDS011;2229;48.708;9.706;2023-01-01T00:53:28;41.07;;;22.80;;
4432;SDS011;2229;48.708;9.706;2023-01-01T00:55:55;50.33;;;22.03;;
4432;SDS011;2229;48.708;9.706;2023-01-01T00:58:23;35.73;;;17.00;;
4432;SDS011;2229;48.708;9.706;2023-01-01T01:00:51;48.53;;;23.20;;
4432;SDS011;2229;48.708;9.706;2023-01-01T01:03:20;35.87;;;17.57;;
4432;SDS011;2229;48.708;9.706;2023-01-01T01:06:07;46.50;;;21.97;;
4432;SDS011;2229;48.708;9.706;2023-01-01T01:08:48;43.90;;;17.50;;
4432;SDS011;2229;48.708;9.706;2023-01-01T01:11:18;33.57;;;15.80;;
4432;SDS011;2229;48.708;9.706;2023-01-01T01:13:50;36.10;;;15.87;;
4432;SDS011;2229;48.708;9.706;2023-01-01T01:16:25;35.17;;;17.93;;
4432;SDS011;2229;48.708;9.706;2023-01-01T01:18:57;34.03;;;14.70;;
4432;SDS011;2229;48.708;9.706;2023-01-01T01:21:27;28.97;;;13.13;;
4432;SDS011;2229;48.708;9.706;2023-01-01T01:23:56;32.03;;;13.80;;
4432;SDS011;2229;48.708;9.706;2023-01-01T01:26:25;31.57;;;13.30;;
4432;SDS011;2229;48.708;9.706;2023-01-01T01:28:55;23.93;;;10.93;;
4432;SDS011;2229;48.708;9.706;2023-01-01T01:31:24;28.83;;;14.47;;
4432;SDS011;2229;48.708;9.706;2023-01-01T01:34:00;25.33;;;10.93;;
4432;SDS011;2229;48.708;9.706;2023-01-01T01:36:29;42.00;;;14.50;;
4432;SDS011;2229;48.708;9.706;2023-01-01T01:38:57;40.13;;;16.80;;
4432;SDS011;2229;48.708;9.706;2023-01-01T01:41:26;34.53;;;13.33;;
4432;SDS011;2229;48.708;9.706;2023-01-01T01:43:55;22.20;;;11.00;;
4432;SDS011;2229;48.708;9.706;2023-01-01T01:46:29;18.60;;;10.87;;
4432;SDS011;2229;48.708;9.706;2023-01-01T01:48:59;20.43;;;10.97;;
4432;SDS011;2229;48.708;9.706;2023-01-01T01:51:32;22.97;;;9.83;;
4432;SDS011;2229;48.708;9.706;2023-01-01T01:54:06;22.27;;;11.27;;
4432;SDS011;2229;48.708;9.706;2023-01-01T01:56:38;27.83;;;10.57;;
4432;SDS011;2229;48.708;9.706;2023-01-01T01:59:09;20.83;;;9.07;;
4432;SDS011;2229;48.708;9.706;2023-01-01T02:01:36;19.73;;;10.23;;
4432;SDS011;2229;48.708;9.706;2023-01-01T02:04:04;19.00;;;10.70;;
4432;SDS011;2229;48.708;9.706;2023-01-01T02:06:34;20.10;;;8.83;;
4432;SDS011;2229;48.708;9.706;2023-01-01T02:09:05;21.13;;;9.77;;
4432;SDS011;2229;48.708;9.706;2023-01-01T02:11:34;15.50;;;7.30;;
4432;SDS011;2229;48.708;9.706;2023-01-01T02:14:01;16.67;;;7.73;;
4432;SDS011;2229;48.708;9.706;2023-01-01T02:16:32;16.43;;;7.73;;
4432;SDS011;2229;48.708;9.706;2023-01-01T02:19:06;22.33;;;9.50;;
4432;SDS011;2229;48.708;9.706;2023-01-01T02:21:51;17.27;;;7.67;;
4432;SDS011;2229;48.708;9.706;2023-01-01T02:24:33;17.37;;;7.63;;
4432;SDS011;2229;48.708;9.706;2023-01-01T02:27:09;11.23;;;5.73;;
4432;SDS011;2229;48.708;9.706;2023-01-01T02:29:44;9.40;;;5.10;;
4432;SDS011;2229;48.708;9.706;2023-01-01T02:32:17;10.83;;;5.87;;
4432;SDS011;2229;48.708;9.706;2023-01-01T02:34:48;14.50;;;6.27;;
4432;SDS011;2229;48.708;9.706;2023-01-01T02:37:20;17.17;;;6.83;;
4432;SDS011;2229;48.708;9.706;2023-01-01T02:39:51;12.63;;;4.87;;
4432;SDS011;2229;48.708;9.706;2023-01-01T02:42:22;9.50;;;5.00;;
4432;SDS011;2229;48.708;9.706;2023-01-01T02:44:54;12.17;;;6.20;;
4432;SDS011;2229;48.708;9.706;2023-01-01T02:47:23;15.07;;;6.57;;
4432;SDS011;2229;48.708;9.706;2023-01-01T02:49:55;14.63;;;6.30;;
4432;SDS011;2229;48.708;9.706;2023-01-01T02:52:32;8.50;;;5.30;;
4432;SDS011;2229;48.708;9.706;2023-01-01T02:55:11;11.53;;;6.00;;
4432;SDS011;2229;48.708;9.706;2023-01-01T02:57:47;15.73;;;9.93;;
4432;SDS011;2229;48.708;9.706;2023-01-01T03:00:20;9.10;;;5.43;;
4432;SDS011;2229;48.708;9.706;2023-01-01T03:03:07;13.87;;;5.97;;
4432;SDS011;2229;48.708;9.706;2023-01-01T03:05:42;15.77;;;7.10;;
4432;SDS011;2229;48.708;9.706;2023-01-01T03:08:43;9.67;;;4.90;;
4432;SDS011;2229;48.708;9.706;2023-01-01T03:11:14;9.43;;;4.90;;
4432;SDS011;2229;48.708;9.706;2023-01-01T03:13:46;7.93;;;4.37;;
4432;SDS011;2229;48.708;9.706;2023-01-01T03:16:20;9.80;;;5.47;;
4432;SDS011;2229;48.708;9.706;2023-01-01T03:18:56;7.90;;;4.27;;
4432;SDS011;2229;48.708;9.706;2023-01-01T03:21:39;10.13;;;5.67;;
4432;SDS011;2229;48.708;9.706;2023-01-01T03:24:10;7.60;;;3.77;;
4432;SDS011;2229;48.708;9.706;2023-01-01T03:26:42;8.40;;;3.97;;
4432;SDS011;2229;48.708;9.706;2023-01-01T03:29:11;6.07;;;3.10;;
4432;SDS011;2229;48.708;9.706;2023-01-01T03:31:41;7.50;;;3.30;;
4432;SDS011;2229;48.708;9.706;2023-01-01T03:34:11;7.07;;;2.97;;
4432;SDS011;2229;48.708;9.706;2023-01-01T03:36:55;5.87;;;2.63;;
4432;SDS011;2229;48.708;9.706;2023-01-01T03:39:25;9.13;;;3.57;;
4432;SDS011;2229;48.708;9.706;2023-01-01T03:41:57;7.83;;;4.43;;
4432;SDS011;2229;48.708;9.706;2023-01-01T03:44:34;10.73;;;4.63;;
4432;SDS011;2229;48.708;9.706;2023-01-01T03:47:10;7.30;;;4.10;;
4432;SDS011;2229;48.708;9.706;2023-01-01T03:49:38;9.80;;;4.90;;
4432;SDS011;2229;48.708;9.706;2023-01-01T03:52:14;14.07;;;4.27;;
4432;SDS011;2229;48.708;9.706;2023-01-01T03:54:51;5.53;;;3.20;;
4432;SDS011;2229;48.708;9.706;2023-01-01T03:57:21;5.50;;;3.90;;
4432;SDS011;2229;48.708;9.706;2023-01-01T03:59:55;8.53;;;3.30;;
4432;SDS011;2229;48.708;9.706;2023-01-01T04:02:39;7.50;;;2.67;;
4432;SDS011;2229;48.708;9.706;2023-01-01T04:05:10;4.37;;;2.60;;
4432;SDS011;2229;48.708;9.706;2023-01-01T04:07:39;5.10;;;1.87;;
4432;SDS011;2229;48.708;9.706;2023-01-01T04:10:07;5.80;;;2.53;;
4432;SDS011;2229;48.708;9.706;2023-01-01T04:12:43;7.63;;;2.40;;
4432;SDS011;2229;48.708;9.706;2023-01-01T04:15:14;5.93;;;2.93;;
4432;SDS011;2229;48.708;9.706;2023-01-01T04:17:43;8.23;;;3.10;;
4432;SDS011;2229;48.708;9.706;2023-01-01T04:20:11;6.07;;;3.13;;
4432;SDS011;2229;48.708;9.706;2023-01-01T04:22:39;7.03;;;4.20;;
4432;SDS011;2229;48.708;9.706;2023-01-01T04:25:07;10.23;;;4.50;;
4432;SDS011;2229;48.708;9.706;2023-01-01T04:27:35;7.60;;;3.67;;
4432;SDS011;2229;48.708;9.706;2023-01-01T04:30:04;7.30;;;2.37;;
4432;SDS011;2229;48.708;9.706;2023-01-01T04:32:32;6.23;;;3.03;;
4432;SDS011;2229;48.708;9.706;2023-01-01T04:35:02;4.40;;;2.17;;
4432;SDS011;2229;48.708;9.706;2023-01-01T04:37:29;5.93;;;3.17;;
4432;SDS011;2229;48.708;9.706;2023-01-01T04:39:56;8.10;;;4.20;;
4432;SDS011;2229;48.708;9.706;2023-01-01T04:42:24;5.50;;;3.30;;
4432;SDS011;2229;48.708;9.706;2023-01-01T04:44:52;4.87;;;3.33;;
4432;SDS011;2229;48.708;9.706;2023-01-01T04:47:19;5.47;;;2.83;;
4432;SDS011;2229;48.708;9.706;2023-01-01T04:49:47;8.17;;;3.50;;
4432;SDS011;2229;48.708;9.706;2023-01-01T04:52:15;5.53;;;3.43;;
4432;SDS011;2229;48.708;9.706;2023-01-01T04:54:43;5.73;;;2.57;;
4432;SDS011;2229;48.708;9.706;2023-01-01T04:57:11;8.10;;;3.47;;
4432;SDS011;2229;48.708;9.706;2023-01-01T04:59:38;7.73;;;3.33;;
4432;SDS011;2229;48.708;9.706;2023-01-01T05:02:06;8.00;;;2.63;;
4432;SDS011;2229;48.708;9.706;2023-01-01T05:04:33;4.60;;;1.90;;
4432;SDS011;2229;48.708;9.706;2023-01-01T05:07:00;9.37;;;1.90;;
4432;SDS011;2229;48.708;9.706;2023-01-01T05:09:29;3.77;;;3.03;;
4432;SDS011;2229;48.708;9.706;2023-01-01T05:11:57;5.40;;;2.57;;
4432;SDS011;2229;48.708;9.706;2023-01-01T05:14:25;3.67;;;2.00;;
4432;SDS011;2229;48.708;9.706;2023-01-01T05:16:52;6.77;;;2.70;;
4432;SDS011;2229;48.708;9.706;2023-01-01T05:19:20;4.50;;;2.23;;
4432;SDS011;2229;48.708;9.706;2023-01-01T05:21:47;5.20;;;2.17;;
4432;SDS011;2229;48.708;9.706;2023-01-01T05:24:15;9.77;;;3.87;;
4432;SDS011;2229;48.708;9.706;2023-01-01T05:26:43;5.37;;;2.30;;
4432;SDS011;2229;48.708;9.706;2023-01-01T05:29:11;6.73;;;2.10;;
4432;SDS011;2229;48.708;9.706;2023-01-01T05:31:38;3.20;;;1.73;;
4432;SDS011;2229;48.708;9.706;2023-01-01T05:34:05;7.13;;;2.50;;
4432;SDS011;2229;48.708;9.706;2023-01-01T05:36:33;5.07;;;2.87;;
4432;SDS011;2229;48.708;9.706;2023-01-01T05:39:03;7.93;;;2.77;;
4432;SDS011;2229;48.708;9.706;2023-01-01T05:41:30;5.63;;;2.60;;
4432;SDS011;2229;48.708;9.706;2023-01-01T05:44:02;4.27;;;1.80;;
4432;SDS011;2229;48.708;9.706;2023-01-01T05:46:31;4.47;;;2.33;;
4432;SDS011;2229;48.708;9.706;2023-01-01T05:48:58;4.17;;;2.70;;
4432;SDS011;2229;48.708;9.706;2023-01-01T05:51:26;4.10;;;1.90;;
4432;SDS011;2229;48.708;9.706;2023-01-01T05:53:55;6.97;;;2.53;;
4432;SDS011;2229;48.708;9.706;2023-01-01T05:56:23;11.70;;;3.37;;
4432;SDS011;2229;48.708;9.706;2023-01-01T05:58:51;7.60;;;3.23;;
4432;SDS011;2229;48.708;9.706;2023-01-01T06:01:21;3.97;;;2.00;;
4432;SDS011;2229;48.708;9.706;2023-01-01T06:03:49;5.20;;;2.17;;
4432;SDS011;2229;48.708;9.706;2023-01-01T06:06:19;9.40;;;2.77;;
4432;SDS011;2229;48.708;9.706;2023-01-01T06:08:48;4.70;;;1.70;;
4432;SDS011;2229;48.708;9.706;2023-01-01T06:11:16;7.13;;;2.00;;
4432;SDS011;2229;48.708;9.706;2023-01-01T06:13:43;4.63;;;2.70;;
4432;SDS011;2229;48.708;9.706;2023-01-01T06:16:10;4.13;;;1.77;;
4432;SDS011;2229;48.708;9.706;2023-01-01T06:18:39;5.63;;;2.93;;
4432;SDS011;2229;48.708;9.706;2023-01-01T06:21:07;5.93;;;3.03;;
4432;SDS011;2229;48.708;9.706;2023-01-01T06:23:36;3.73;;;1.97;;
4432;SDS011;2229;48.708;9.706;2023-01-01T06:26:09;5.63;;;2.23;;
4432;SDS011;2229;48.708;9.706;2023-01-01T06:28:41;5.27;;;2.23;;
4432;SDS011;2229;48.708;9.706;2023-01-01T06:31:10;9.67;;;2.10;;
4432;SDS011;2229;48.708;9.706;2023-01-01T06:33:40;6.20;;;1.90;;
4432;SDS011;2229;48.708;9.706;2023-01-01T06:36:09;3.43;;;1.40;;
4432;SDS011;2229;48.708;9.706;2023-01-01T06:38:38;6.27;;;2.63;;
4432;SDS011;2229;48.708;9.706;2023-01-01T06:41:08;4.43;;;1.57;;
4432;SDS011;2229;48.708;9.706;2023-01-01T06:43:38;3.13;;;1.20;;
4432;SDS011;2229;48.708;9.706;2023-01-01T06:46:05;6.13;;;2.63;;
4432;SDS011;2229;48.708;9.706;2023-01-01T06:48:36;4.90;;;1.90;;
4432;SDS011;2229;48.708;9.706;2023-01-01T06:51:06;2.67;;;1.37;;
4432;SDS011;2229;48.708;9.706;2023-01-01T06:53:35;4.53;;;2.00;;
4432;SDS011;2229;48.708;9.706;2023-01-01T06:56:03;3.07;;;2.00;;
4432;SDS011;2229;48.708;9.706;2023-01-01T06:58:30;3.70;;;1.73;;
4432;SDS011;2229;48.708;9.706;2023-01-01T07:01:04;2.83;;;1.43;;
4432;SDS011;2229;48.708;9.706;2023-01-01T07:03:34;5.23;;;1.93;;
4432;SDS011;2229;48.708;9.706;2023-01-01T07:06:02;5.30;;;1.93;;
4432;SDS011;2229;48.708;9.706;2023-01-01T07:08:31;8.90;;;3.57;;
4432;SDS011;2229;48.708;9.706;2023-01-01T07:11:01;3.73;;;2.40;;
4432;SDS011;2229;48.708;9.706;2023-01-01T07:13:29;3.57;;;1.63;;
4432;SDS011;2229;48.708;9.706;2023-01-01T07:15:56;7.27;;;1.50;;
4432;SDS011;2229;48.708;9.706;2023-01-01T07:18:26;3.40;;;1.70;;
4432;SDS011;2229;48.708;9.706;2023-01-01T07:20:54;4.00;;;1.63;;
4432;SDS011;2229;48.708;9.706;2023-01-01T07:23:23;4.73;;;3.00;;
4432;SDS011;2229;48.708;9.706;2023-01-01T07:25:53;3.10;;;1.63;;
4432;SDS011;2229;48.708;9.706;2023-01-01T07:28:22;4.10;;;2.07;;
4432;SDS011;2229;48.708;9.706;2023-01-01T07:30:50;4.17;;;1.10;;
4432;SDS011;2229;48.708;9.706;2023-01-01T07:33:18;3.13;;;1.23;;
4432;SDS011;2229;48.708;9.706;2023-01-01T07:35:48;1.93;;;0.93;;
4432;SDS011;2229;48.708;9.706;2023-01-01T07:38:16;2.87;;;1.50;;
4432;SDS011;2229;48.708;9.706;2023-01-01T07:40:44;4.00;;;1.60;;
4432;SDS011;2229;48.708;9.706;2023-01-01T07:43:12;5.70;;;1.67;;
4432;SDS011;2229;48.708;9.706;2023-01-01T07:45:39;3.37;;;0.97;;
4432;SDS011;2229;48.708;9.706;2023-01-01T07:48:08;3.83;;;1.50;;
4432;SDS011;2229;48.708;9.706;2023-01-01T07:50:40;4.90;;;1.80;;
4432;SDS011;2229;48.708;9.706;2023-01-01T07:53:08;4.37;;;1.47;;
4432;SDS011;2229;48.708;9.706;2023-01-01T07:55:35;3.37;;;1.60;;
4432;SDS011;2229;48.708;9.706;2023-01-01T07:58:02;4.97;;;1.77;;
4432;SDS011;2229;48.708;9.706;2023-01-01T08:00:31;3.87;;;2.00;;
4432;SDS011;2229;48.708;9.706;2023-01-01T08:02:59;3.50;;;1.87;;
4432;SDS011;2229;48.708;9.706;2023-01-01T08:05:26;16.60;;;4.67;;
4432;SDS011;2229;48.708;9.706;2023-01-01T08:07:54;2.83;;;1.80;;
4432;SDS011;2229;48.708;9.706;2023-01-01T08:10:21;5.57;;;3.13;;
4432;SDS011;2229;48.708;9.706;2023-01-01T08:12:49;3.77;;;1.50;;
4432;SDS011;2229;48.708;9.706;2023-01-01T08:15:17;5.07;;;1.63;;
4432;SDS011;2229;48.708;9.706;2023-01-01T08:17:46;3.73;;;2.37;;
4432;SDS011;2229;48.708;9.706;2023-01-01T08:20:13;4.17;;;1.17;;
4432;SDS011;2229;48.708;9.706;2023-01-01T08:22:40;3.07;;;1.20;;
4432;SDS011;2229;48.708;9.706;2023-01-01T08:25:08;3.20;;;1.33;;
4432;SDS011;2229;48.708;9.706;2023-01-01T08:27:36;2.53;;;1.27;;
4432;SDS011;2229;48.708;9.706;2023-01-01T08:30:04;2.20;;;1.20;;
4432;SDS011;2229;48.708;9.706;2023-01-01T08:32:34;1.67;;;1.00;;
4432;SDS011;2229;48.708;9.706;2023-01-01T08:35:02;3.10;;;1.87;;
4432;SDS011;2229;48.708;9.706;2023-01-01T08:37:30;4.70;;;1.23;;
4432;SDS011;2229;48.708;9.706;2023-01-01T08:39:57;6.53;;;1.50;;
4432;SDS011;2229;48.708;9.706;2023-01-01T08:42:25;4.50;;;1.77;;
4432;SDS011;2229;48.708;9.706;2023-01-01T08:44:52;2.93;;;1.50;;
4432;SDS011;2229;48.708;9.706;2023-01-01T08:47:20;1.97;;;1.20;;
4432;SDS011;2229;48.708;9.706;2023-01-01T08:49:49;7.90;;;3.93;;
4432;SDS011;2229;48.708;9.706;2023-01-01T08:52:17;8.47;;;5.00;;
4432;SDS011;2229;48.708;9.706;2023-01-01T08:54:45;7.50;;;3.10;;
4432;SDS011;2229;48.708;9.706;2023-01-01T08:57:14;5.23;;;3.13;;
4432;SDS011;2229;48.708;9.706;2023-01-01T08:59:41;4.60;;;2.53;;
4432;SDS011;2229;48.708;9.706;2023-01-01T09:02:08;4.40;;;2.00;;
4432;SDS011;2229;48.708;9.706;2023-01-01T09:04:36;3.60;;;1.80;;
4432;SDS011;2229;48.708;9.706;2023-01-01T09:07:03;3.60;;;1.30;;
4432;SDS011;2229;48.708;9.706;2023-01-01T09:09:32;6.03;;;1.27;;
4432;SDS011;2229;48.708;9.706;2023-01-01T09:11:59;5.00;;;1.33;;
4432;SDS011;2229;48.708;9.706;2023-01-01T09:14:32;2.63;;;1.20;;
4432;SDS011;2229;48.708;9.706;2023-01-01T09:17:05;4.27;;;1.43;;
4432;SDS011;2229;48.708;9.706;2023-01-01T09:19:33;2.80;;;1.53;;
4432;SDS011;2229;48.708;9.706;2023-01-01T09:22:01;5.70;;;1.80;;
4432;SDS011;2229;48.708;9.706;2023-01-01T09:24:28;3.00;;;1.27;;
4432;SDS011;2229;48.708;9.706;2023-01-01T09:26:56;2.07;;;1.47;;
4432;SDS011;2229;48.708;9.706;2023-01-01T09:29:24;5.60;;;1.87;;
4432;SDS011;2229;48.708;9.706;2023-01-01T09:31:51;4.30;;;1.60;;
4432;SDS011;2229;48.708;9.706;2023-01-01T09:34:18;2.37;;;1.27;;
4432;SDS011;2229;48.708;9.706;2023-01-01T09:36:45;6.97;;;2.80;;
4432;SDS011;2229;48.708;9.706;2023-01-01T09:39:13;8.57;;;4.97;;
4432;SDS011;2229;48.708;9.706;2023-01-01T09:42:04;9.43;;;3.80;;
4432;SDS011;2229;48.708;9.706;2023-01-01T09:44:50;5.93;;;2.60;;
4432;SDS011;2229;48.708;9.706;2023-01-01T09:47:27;6.53;;;3.20;;
4432;SDS011;2229;48.708;9.706;2023-01-01T09:49:59;2.80;;;1.63;;
4432;SDS011;2229;48.708;9.706;2023-01-01T09:52:34;10.27;;;4.23;;
4432;SDS011;2229;48.708;9.706;2023-01-01T09:55:10;10.20;;;4.63;;
4432;SDS011;2229;48.708;9.706;2023-01-01T09:57:45;9.30;;;4.00;;
4432;SDS011;2229;48.708;9.706;2023-01-01T10:00:13;6.67;;;3.93;;
4432;SDS011;2229;48.708;9.706;2023-01-01T10:02:44;5.20;;;2.27;;
4432;SDS011;2229;48.708;9.706;2023-01-01T10:05:42;7.23;;;3.30;;
4432;SDS011;2229;48.708;9.706;2023-01-01T10:08:17;9.57;;;2.37;;
4432;SDS011;2229;48.708;9.706;2023-01-01T10:11:04;5.30;;;1.53;;
4432;SDS011;2229;48.708;9.706;2023-01-01T10:13:42;4.10;;;1.60;;
4432;SDS011;2229;48.708;9.706;2023-01-01T10:16:11;4.70;;;2.40;;
4432;SDS011;2229;48.708;9.706;2023-01-01T10:18:43;1.90;;;0.80;;
4432;SDS011;2229;48.708;9.706;2023-01-01T10:21:14;4.17;;;1.70;;
4432;SDS011;2229;48.708;9.706;2023-01-01T10:23:45;2.73;;;1.33;;
4432;SDS011;2229;48.708;9.706;2023-01-01T10:26:16;3.20;;;1.20;;
4432;SDS011;2229;48.708;9.706;2023-01-01T10:28:48;9.03;;;1.00;;
4432;SDS011;2229;48.708;9.706;2023-01-01T10:31:26;4.57;;;1.20;;
4432;SDS011;2229;48.708;9.706;2023-01-01T10:33:56;3.00;;;1.10;;
4432;SDS011;2229;48.708;9.706;2023-01-01T10:36:23;3.03;;;1.43;;
4432;SDS011;2229;48.708;9.706;2023-01-01T10:38:53;7.20;;;1.90;;
4432;SDS011;2229;48.708;9.706;2023-01-01T10:41:20;1.60;;;1.00;;
4432;SDS011;2229;48.708;9.706;2023-01-01T10:43:49;4.47;;;2.10;;
4432;SDS011;2229;48.708;9.706;2023-01-01T10:46:17;4.63;;;1.53;;
4432;SDS011;2229;48.708;9.706;2023-01-01T10:51:44;2.83;;;1.40;;
4432;SDS011;2229;48.708;9.706;2023-01-01T10:57:13;2.17;;;1.07;;
4432;SDS011;2229;48.708;9.706;2023-01-01T10:59:47;4.07;;;1.63;;
4432;SDS011;2229;48.708;9.706;2023-01-01T11:02:19;2.43;;;1.07;;
4432;SDS011;2229;48.708;9.706;2023-01-01T11:04:52;3.43;;;1.30;;
4432;SDS011;2229;48.708;9.706;2023-01-01T11:07:40;1.60;;;0.90;;
4432;SDS011;2229;48.708;9.706;2023-01-01T11:10:14;2.63;;;1.50;;
4432;SDS011;2229;48.708;9.706;2023-01-01T11:12:44;2.97;;;2.00;;
4432;SDS011;2229;48.708;9.706;2023-01-01T11:15:25;1.60;;;0.90;;
4432;SDS011;2229;48.708;9.706;2023-01-01T11:18:04;2.80;;;1.80;;
4432;SDS011;2229;48.708;9.706;2023-01-01T11:20:34;3.60;;;1.57;;
4432;SDS011;2229;48.708;9.706;2023-01-01T11:23:16;4.40;;;2.67;;
4432;SDS011;2229;48.708;9.706;2023-01-01T11:25:58;2.80;;;1.30;;
4432;SDS011;2229;48.708;9.706;2023-01-01T11:28:28;3.03;;;1.53;;
4432;SDS011;2229;48.708;9.706;2023-01-01T11:31:02;4.07;;;1.83;;
4432;SDS011;2229;48.708;9.706;2023-01-01T11:33:33;7.77;;;1.50;;
4432;SDS011;2229;48.708;9.706;2023-01-01T11:36:04;3.73;;;1.57;;
4432;SDS011;2229;48.708;9.706;2023-01-01T11:38:32;2.40;;;1.13;;
4432;SDS011;2229;48.708;9.706;2023-01-01T11:41:01;3.63;;;2.07;;
4432;SDS011;2229;48.708;9.706;2023-01-01T11:43:32;4.57;;;1.90;;
4432;SDS011;2229;48.708;9.706;2023-01-01T11:46:08;2.70;;;1.40;;
4432;SDS011;2229;48.708;9.706;2023-01-01T11:48:40;4.27;;;1.67;;
4432;SDS011;2229;48.708;9.706;2023-01-01T11:51:10;7.40;;;1.87;;
4432;SDS011;2229;48.708;9.706;2023-01-01T11:53:58;2.97;;;1.40;;
4432;SDS011;2229;48.708;9.706;2023-01-01T11:56:35;5.50;;;1.87;;
4432;SDS011;2229;48.708;9.706;2023-01-01T11:59:05;3.40;;;1.60;;
4432;SDS011;2229;48.708;9.706;2023-01-01T12:01:43;3.40;;;1.43;;
4432;SDS011;2229;48.708;9.706;2023-01-01T12:04:15;2.33;;;1.17;;
4432;SDS011;2229;48.708;9.706;2023-01-01T12:06:46;2.20;;;1.17;;
4432;SDS011;2229;48.708;9.706;2023-01-01T12:09:19;7.90;;;1.60;;
4432;SDS011;2229;48.708;9.706;2023-01-01T12:11:50;3.97;;;1.90;;
4432;SDS011;2229;48.708;9.706;2023-01-01T12:14:21;5.63;;;1.73;;
4432;SDS011;2229;48.708;9.706;2023-01-01T12:16:57;2.03;;;1.13;;
4432;SDS011;2229;48.708;9.706;2023-01-01T12:19:27;2.00;;;0.83;;
4432;SDS011;2229;48.708;9.706;2023-01-01T12:21:59;2.90;;;1.07;;
4432;SDS011;2229;48.708;9.706;2023-01-01T12:24:29;2.90;;;1.20;;
4432;SDS011;2229;48.708;9.706;2023-01-01T12:27:06;10.63;;;1.40;;
4432;SDS011;2229;48.708;9.706;2023-01-01T12:29:44;4.90;;;1.97;;
4432;SDS011;2229;48.708;9.706;2023-01-01T12:32:34;4.70;;;1.20;;
4432;SDS011;2229;48.708;9.706;2023-01-01T12:35:16;3.27;;;1.40;;
4432;SDS011;2229;48.708;9.706;2023-01-01T12:37:56;1.83;;;0.80;;
4432;SDS011;2229;48.708;9.706;2023-01-01T12:40:37;2.87;;;0.93;;
4432;SDS011;2229;48.708;9.706;2023-01-01T12:43:07;4.10;;;1.50;;
4432;SDS011;2229;48.708;9.706;2023-01-01T12:45:40;2.67;;;1.00;;
4432;SDS011;2229;48.708;9.706;2023-01-01T12:48:35;1.93;;;1.53;;
4432;SDS011;2229;48.708;9.706;2023-01-01T12:51:19;3.00;;;0.97;;
4432;SDS011;2229;48.708;9.706;2023-01-01T12:53:55;3.90;;;1.30;;
4432;SDS011;2229;48.708;9.706;2023-01-01T12:56:51;2.00;;;0.90;;
4432;SDS011;2229;48.708;9.706;2023-01-01T12:59:25;2.90;;;1.47;;
4432;SDS011;2229;48.708;9.706;2023-01-01T13:01:58;4.83;;;1.30;;
4432;SDS011;2229;48.708;9.706;2023-01-01T13:04:29;6.20;;;1.10;;
4432;SDS011;2229;48.708;9.706;2023-01-01T13:06:58;2.23;;;0.93;;
4432;SDS011;2229;48.708;9.706;2023-01-01T13:09:31;1.80;;;0.90;;
4432;SDS011;2229;48.708;9.706;2023-01-01T13:12:03;2.33;;;1.23;;
4432;SDS011;2229;48.708;9.706;2023-01-01T13:14:37;1.60;;;0.80;;
4432;SDS011;2229;48.708;9.706;2023-01-01T13:17:04;5.17;;;0.80;;
4432;SDS011;2229;48.708;9.706;2023-01-01T13:19:46;1.97;;;1.17;;
4432;SDS011;2229;48.708;9.706;2023-01-01T13:25:20;12.03;;;0.90;;
4432;SDS011;2229;48.708;9.706;2023-01-01T13:28:03;2.30;;;1.03;;
4432;SDS011;2229;48.708;9.706;2023-01-01T13:30:48;5.90;;;1.00;;
4432;SDS011;2229;48.708;9.706;2023-01-01T13:33:17;3.20;;;1.07;;
4432;SDS011;2229;48.708;9.706;2023-01-01T13:38:57;2.50;;;1.10;;
4432;SDS011;2229;48.708;9.706;2023-01-01T13:41:29;7.80;;;1.10;;
4432;SDS011;2229;48.708;9.706;2023-01-01T13:47:07;4.30;;;1.43;;
4432;SDS011;2229;48.708;9.706;2023-01-01T13:49:52;2.77;;;1.10;;
4432;SDS011;2229;48.708;9.706;2023-01-01T13:52:41;1.73;;;0.87;;
4432;SDS011;2229;48.708;9.706;2023-01-01T14:04:29;2.20;;;0.90;;
4432;SDS011;2229;48.708;9.706;2023-01-01T14:07:05;3.67;;;1.77;;
4432;SDS011;2229;48.708;9.706;2023-01-01T14:09:42;1.70;;;1.00;;
4432;SDS011;2229;48.708;9.706;2023-01-01T14:12:13;3.63;;;1.33;;
4432;SDS011;2229;48.708;9.706;2023-01-01T14:14:45;3.50;;;1.57;;
4432;SDS011;2229;48.708;9.706;2023-01-01T14:17:16;3.37;;;0.80;;
4432;SDS011;2229;48.708;9.706;2023-01-01T14:19:43;14.27;;;1.83;;
4432;SDS011;2229;48.708;9.706;2023-01-01T14:22:13;3.37;;;1.37;;
4432;SDS011;2229;48.708;9.706;2023-01-01T14:24:46;1.50;;;0.80;;
4432;SDS011;2229;48.708;9.706;2023-01-01T14:27:15;10.00;;;2.60;;
4432;SDS011;2229;48.708;9.706;2023-01-01T14:29:47;7.13;;;1.93;;
4432;SDS011;2229;48.708;9.706;2023-01-01T14:32:20;1.80;;;1.03;;
4432;SDS011;2229;48.708;9.706;2023-01-01T14:34:57;10.03;;;1.90;;
4432;SDS011;2229;48.708;9.706;2023-01-01T14:37:26;3.50;;;2.00;;
4432;SDS011;2229;48.708;9.706;2023-01-01T14:40:07;5.50;;;1.97;;
4432;SDS011;2229;48.708;9.706;2023-01-01T14:42:42;2.07;;;0.80;;
4432;SDS011;2229;48.708;9.706;2023-01-01T14:45:12;3.60;;;1.50;;
4432;SDS011;2229;48.708;9.706;2023-01-01T14:47:41;3.33;;;1.20;;
4432;SDS011;2229;48.708;9.706;2023-01-01T14:50:16;9.97;;;1.30;;
4432;SDS011;2229;48.708;9.706;2023-01-01T14:52:50;5.53;;;2.30;;
4432;SDS011;2229;48.708;9.706;2023-01-01T14:55:31;5.70;;;1.70;;
4432;SDS011;2229;48.708;9.706;2023-01-01T14:58:04;2.63;;;1.60;;
4432;SDS011;2229;48.708;9.706;2023-01-01T15:00:32;2.17;;;1.00;;
4432;SDS011;2229;48.708;9.706;2023-01-01T15:03:05;7.60;;;1.40;;
4432;SDS011;2229;48.708;9.706;2023-01-01T15:05:37;4.90;;;1.33;;
4432;SDS011;2229;48.708;9.706;2023-01-01T15:08:19;1.80;;;0.93;;
4432;SDS011;2229;48.708;9.706;2023-01-01T15:10:50;10.80;;;2.93;;
4432;SDS011;2229;48.708;9.706;2023-01-01T15:13:19;12.60;;;4.00;;
4432;SDS011;2229;48.708;9.706;2023-01-01T15:15:48;9.07;;;4.30;;
4432;SDS011;2229;48.708;9.706;2023-01-01T15:18:35;12.83;;;4.17;;
4432;SDS011;2229;48.708;9.706;2023-01-01T15:21:05;7.47;;;2.30;;
4432;SDS011;2229;48.708;9.706;2023-01-01T15:23:38;4.13;;;1.67;;
4432;SDS011;2229;48.708;9.706;2023-01-01T15:26:23;7.03;;;2.30;;
4432;SDS011;2229;48.708;9.706;2023-01-01T15:28:55;14.80;;;2.80;;
4432;SDS011;2229;48.708;9.706;2023-01-01T15:31:32;17.53;;;2.43;;
4432;SDS011;2229;48.708;9.706;2023-01-01T15:34:00;7.50;;;3.30;;
4432;SDS011;2229;48.708;9.706;2023-01-01T15:36:27;4.07;;;1.93;;
4432;SDS011;2229;48.708;9.706;2023-01-01T15:38:54;4.03;;;1.47;;
4432;SDS011;2229;48.708;9.706;2023-01-01T15:41:25;2.20;;;1.17;;
4432;SDS011;2229;48.708;9.706;2023-01-01T15:44:07;7.10;;;1.03;;
4432;SDS011;2229;48.708;9.706;2023-01-01T15:46:43;3.00;;;1.43;;
4432;SDS011;2229;48.708;9.706;2023-01-01T15:49:20;3.20;;;1.73;;
4432;SDS011;2229;48.708;9.706;2023-01-01T15:51:50;2.90;;;1.80;;
4432;SDS011;2229;48.708;9.706;2023-01-01T15:54:18;5.60;;;0.93;;
4432;SDS011;2229;48.708;9.706;2023-01-01T15:56:46;3.43;;;1.27;;
4432;SDS011;2229;48.708;9.706;2023-01-01T15:59:17;3.83;;;1.30;;
4432;SDS011;2229;48.708;9.706;2023-01-01T16:02:00;2.47;;;1.00;;